createdAt,value
2017-11-07T00:00:12.857Z,4.1
2017-11-07T00:01:12.004Z,4.1
2017-11-07T00:02:11.303Z,4.1
2017-11-07T00:03:10.439Z,4.2
2017-11-07T00:04:08.958Z,4.2
2017-11-07T00:05:08.241Z,4.2
2017-11-07T00:06:07.667Z,4.2
2017-11-07T00:08:05.457Z,4.2
2017-11-07T00:09:04.469Z,4.2
2017-11-07T00:10:03.615Z,4.2
2017-11-07T00:11:02.395Z,4.2
2017-11-07T00:12:01.799Z,4.2
2017-11-07T00:13:00.562Z,4.2
2017-11-07T00:13:59.698Z,4.2
2017-11-07T00:14:58.849Z,4.2
2017-11-07T00:15:57.624Z,4.2
2017-11-07T00:16:56.634Z,4.2
2017-11-07T00:17:27.357Z,4.2
2017-11-07T00:17:57.815Z,4.3
2017-11-07T00:18:28.404Z,4.3
2017-11-07T00:18:58.359Z,4.2
2017-11-07T00:19:53.986Z,4.2
2017-11-07T00:21:52.284Z,4.3
2017-11-07T00:22:50.670Z,4.3
2017-11-07T00:24:48.728Z,4.3
2017-11-07T00:25:47.874Z,4.2
2017-11-07T00:26:47.299Z,4.2
2017-11-07T00:27:46.108Z,4.2
2017-11-07T00:28:45.252Z,4.2
2017-11-07T00:29:44.128Z,4.2
2017-11-07T00:30:43.152Z,4.2
2017-11-07T00:31:42.291Z,4.2
2017-11-07T00:32:41.429Z,4.2
2017-11-07T00:33:40.435Z,4.2
2017-11-07T00:34:39.195Z,4.2
2017-11-07T00:35:38.600Z,4.2
2017-11-07T00:36:37.231Z,4.2
2017-11-07T00:37:36.242Z,4.2
2017-11-07T00:38:35.510Z,4.2
2017-11-07T00:40:33.525Z,4.2
2017-11-07T00:41:32.529Z,4.2
2017-11-07T00:42:31.405Z,4.2
2017-11-07T00:43:30.417Z,4.2
2017-11-07T00:44:29.551Z,4.2
2017-11-07T00:45:28.559Z,4.2
2017-11-07T00:46:27.699Z,4.2
2017-11-07T00:47:26.835Z,4.2
2017-11-07T00:49:24.988Z,4.2
2017-11-07T00:50:24.528Z,4.2
2017-11-07T00:51:23.026Z,4.3
2017-11-07T00:52:22.166Z,4.3
2017-11-07T00:53:20.666Z,4.3
2017-11-07T00:54:20.306Z,4.2
2017-11-07T00:55:19.195Z,4.3
2017-11-07T00:56:18.458Z,4.2
2017-11-07T00:57:16.960Z,4.2
2017-11-07T00:58:16.352Z,4.3
2017-11-07T00:58:46.791Z,4.3
2017-11-07T00:59:17.110Z,4.3
2017-11-07T00:59:47.302Z,4.3
2017-11-07T01:00:18.261Z,4.3
2017-11-07T01:01:13.511Z,4.3
2017-11-07T01:02:12.561Z,4.3
2017-11-07T01:03:11.201Z,4.3
2017-11-07T01:04:10.074Z,4.3
2017-11-07T01:05:09.321Z,4.3
2017-11-07T01:06:08.456Z,4.3
2017-11-07T01:07:07.328Z,4.3
2017-11-07T01:08:06.699Z,4.3
2017-11-07T01:10:04.855Z,4.3
2017-11-07T01:11:03.731Z,4.3
2017-11-07T01:12:02.870Z,4.3
2017-11-07T01:13:01.878Z,4.3
2017-11-07T01:14:00.886Z,4.3
2017-11-07T01:15:00.299Z,4.2
2017-11-07T01:15:59.060Z,4.2
2017-11-07T01:16:57.568Z,4.2
2017-11-07T01:17:57.069Z,4.2
2017-11-07T01:18:56.337Z,4.2
2017-11-07T01:19:54.982Z,4.2
2017-11-07T01:20:54.106Z,4.2
2017-11-07T01:21:53.108Z,4.2
2017-11-07T01:22:52.374Z,4.2
2017-11-07T01:23:51.366Z,4.2
2017-11-07T01:24:50.775Z,4.2
2017-11-07T01:25:49.536Z,4.2
2017-11-07T01:26:48.040Z,4.2
2017-11-07T01:27:47.683Z,4.2
2017-11-07T01:30:44.720Z,4.2
2017-11-07T01:31:43.625Z,4.2
2017-11-07T01:32:42.913Z,4.2
2017-11-07T01:33:41.692Z,4.2
2017-11-07T01:34:40.695Z,4.2
2017-11-07T01:35:39.575Z,4.1
2017-11-07T01:36:38.575Z,4.1
2017-11-07T01:37:37.979Z,4.1
2017-11-07T01:38:36.611Z,4.1
2017-11-07T01:39:36.016Z,4.1
2017-11-07T01:40:34.919Z,4.1
2017-11-07T01:41:33.792Z,4.1
2017-11-07T01:42:33.348Z,4
2017-11-07T01:43:31.846Z,4
2017-11-07T01:44:30.735Z,4
2017-11-07T01:45:29.884Z,4.1
2017-11-07T01:46:28.911Z,4
2017-11-07T01:47:28.167Z,4
2017-11-07T01:48:27.178Z,4
2017-11-07T01:49:26.325Z,4
2017-11-07T01:50:25.470Z,4.1
2017-11-07T01:51:23.968Z,4
2017-11-07T01:52:22.971Z,4.1
2017-11-07T01:53:22.352Z,4.1
2017-11-07T01:54:21.626Z,4
2017-11-07T01:56:19.513Z,4.1
2017-11-07T01:56:49.965Z,4.1
2017-11-07T01:57:20.563Z,4.1
2017-11-07T01:58:17.554Z,4.1
2017-11-07T01:59:16.683Z,4
2017-11-07T02:00:15.830Z,4
2017-11-07T02:02:14.114Z,4
2017-11-07T02:03:13.144Z,4
2017-11-07T02:04:11.911Z,4
2017-11-07T02:05:11.050Z,4
2017-11-07T02:06:09.916Z,4
2017-11-07T02:07:09.076Z,4
2017-11-07T02:08:08.215Z,4
2017-11-07T02:09:07.488Z,4
2017-11-07T02:10:06.157Z,4
2017-11-07T02:11:05.306Z,4
2017-11-07T02:12:03.948Z,4
2017-11-07T02:13:03.228Z,4
2017-11-07T02:14:01.966Z,4
2017-11-07T02:15:00.968Z,4
2017-11-07T02:16:00.474Z,4
2017-11-07T02:16:59.235Z,4.1
2017-11-07T02:17:58.238Z,4.1
2017-11-07T02:18:57.508Z,4.1
2017-11-07T02:19:56.918Z,4.1
2017-11-07T02:20:55.691Z,4
2017-11-07T02:21:54.828Z,4
2017-11-07T02:22:53.753Z,4
2017-11-07T02:23:52.792Z,4
2017-11-07T02:24:51.438Z,4
2017-11-07T02:25:50.445Z,4
2017-11-07T02:26:49.857Z,4
2017-11-07T02:27:48.993Z,4
2017-11-07T02:28:47.488Z,4
2017-11-07T02:29:46.763Z,3.9
2017-11-07T02:30:45.775Z,3.9
2017-11-07T02:31:45.170Z,3.9
2017-11-07T02:32:43.669Z,3.9
2017-11-07T02:33:42.802Z,3.9
2017-11-07T02:34:41.806Z,3.8
2017-11-07T02:35:40.943Z,3.8
2017-11-07T02:36:40.210Z,3.8
2017-11-07T02:37:10.311Z,3.8
2017-11-07T02:37:40.895Z,3.9
2017-11-07T02:38:38.276Z,3.9
2017-11-07T02:39:36.911Z,3.8
2017-11-07T02:40:35.918Z,3.8
2017-11-07T02:41:35.428Z,3.8
2017-11-07T02:42:34.305Z,3.9
2017-11-07T02:43:33.734Z,3.9
2017-11-07T02:44:32.788Z,3.8
2017-11-07T02:46:30.593Z,3.8
2017-11-07T02:47:29.598Z,3.8
2017-11-07T02:48:28.864Z,3.9
2017-11-07T02:49:27.515Z,3.9
2017-11-07T02:50:26.528Z,3.8
2017-11-07T02:51:25.529Z,3.9
2017-11-07T02:52:24.662Z,3.9
2017-11-07T02:53:23.935Z,3.9
2017-11-07T02:54:22.566Z,3.9
2017-11-07T02:55:21.845Z,3.9
2017-11-07T02:57:19.604Z,3.8
2017-11-07T02:58:18.868Z,3.8
2017-11-07T02:59:18.156Z,3.8
2017-11-07T03:00:17.082Z,3.8
2017-11-07T03:01:16.225Z,3.8
2017-11-07T03:02:15.007Z,3.8
2017-11-07T03:03:14.148Z,3.8
2017-11-07T03:04:13.072Z,3.8
2017-11-07T03:05:11.942Z,3.8
2017-11-07T03:06:10.949Z,3.8
2017-11-07T03:07:09.964Z,3.8
2017-11-07T03:08:09.097Z,3.8
2017-11-07T03:09:08.247Z,3.8
2017-11-07T03:10:07.118Z,3.8
2017-11-07T03:11:05.989Z,3.8
2017-11-07T03:12:05.236Z,3.7
2017-11-07T03:13:04.515Z,3.7
2017-11-07T03:14:03.297Z,3.8
2017-11-07T03:15:02.177Z,3.7
2017-11-07T03:16:01.309Z,3.7
2017-11-07T03:17:00.572Z,3.7
2017-11-07T03:17:59.586Z,3.7
2017-11-07T03:18:58.584Z,3.7
2017-11-07T03:19:57.992Z,3.7
2017-11-07T03:20:56.359Z,3.8
2017-11-07T03:21:55.629Z,3.8
2017-11-07T03:22:54.777Z,3.8
2017-11-07T03:23:54.058Z,3.8
2017-11-07T03:24:52.821Z,3.8
2017-11-07T03:25:52.085Z,3.8
2017-11-07T03:26:58.177Z,3.8
2017-11-07T03:27:49.780Z,3.8
2017-11-07T03:28:48.922Z,3.8
2017-11-07T03:29:48.071Z,3.8
2017-11-07T03:30:47.007Z,3.8
2017-11-07T03:31:46.021Z,3.8
2017-11-07T03:32:45.032Z,3.8
2017-11-07T03:33:44.173Z,3.9
2017-11-07T03:34:43.309Z,3.9
2017-11-07T03:35:42.052Z,3.8
2017-11-07T03:36:41.468Z,3.8
2017-11-07T03:37:39.835Z,3.8
2017-11-07T03:38:39.339Z,3.8
2017-11-07T03:39:37.971Z,3.8
2017-11-07T03:40:37.492Z,3.8
2017-11-07T03:41:36.385Z,3.8
2017-11-07T03:42:35.257Z,3.8
2017-11-07T03:43:34.402Z,3.8
2017-11-07T03:44:33.555Z,3.7
2017-11-07T03:45:32.456Z,3.7
2017-11-07T03:46:31.884Z,3.7
2017-11-07T03:47:30.400Z,3.7
2017-11-07T03:48:29.804Z,3.7
2017-11-07T03:49:28.436Z,3.7
2017-11-07T03:50:27.737Z,3.7
2017-11-07T03:51:26.245Z,3.7
2017-11-07T03:52:25.811Z,3.6
2017-11-07T03:52:56.396Z,3.6
2017-11-07T03:53:26.722Z,3.6
2017-11-07T03:54:23.871Z,3.6
2017-11-07T03:55:22.875Z,3.6
2017-11-07T03:56:22.010Z,3.6
2017-11-07T03:57:21.032Z,3.7
2017-11-07T03:58:20.072Z,3.7
2017-11-07T03:59:18.572Z,3.7
2017-11-07T04:00:17.708Z,3.7
2017-11-07T04:01:17.119Z,3.7
2017-11-07T04:02:16.144Z,3.7
2017-11-07T04:03:14.771Z,3.7
2017-11-07T04:04:14.412Z,3.7
2017-11-07T04:05:12.786Z,3.7
2017-11-07T04:06:12.053Z,3.7
2017-11-07T04:07:11.056Z,3.7
2017-11-07T04:08:10.327Z,3.7
2017-11-07T04:09:09.333Z,3.7
2017-11-07T04:10:08.606Z,3.8
2017-11-07T04:10:39.071Z,3.8
2017-11-07T04:11:09.542Z,3.8
2017-11-07T04:12:06.310Z,3.8
2017-11-07T04:13:05.456Z,3.7
2017-11-07T04:14:04.469Z,3.7
2017-11-07T04:15:03.486Z,3.7
2017-11-07T04:16:02.623Z,3.7
2017-11-07T04:18:00.644Z,3.8
2017-11-07T04:18:59.417Z,3.8
2017-11-07T04:19:58.705Z,3.8
2017-11-07T04:20:57.710Z,3.8
2017-11-07T04:21:56.974Z,3.8
2017-11-07T04:23:54.631Z,3.9
2017-11-07T04:24:53.503Z,3.9
2017-11-07T04:27:51.035Z,3.9
2017-11-07T04:28:49.671Z,3.9
2017-11-07T04:29:48.690Z,3.9
2017-11-07T04:31:46.578Z,3.9
2017-11-07T04:33:44.980Z,3.9
2017-11-07T04:34:44.258Z,3.9
2017-11-07T04:35:42.908Z,3.9
2017-11-07T04:36:42.189Z,3.9
2017-11-07T04:37:41.214Z,3.9
2017-11-07T04:38:40.496Z,3.9
2017-11-07T04:39:39.010Z,3.9
2017-11-07T04:40:38.026Z,3.9
2017-11-07T04:41:37.192Z,3.9
2017-11-07T04:42:36.091Z,4
2017-11-07T04:43:35.236Z,4
2017-11-07T04:44:05.565Z,4
2017-11-07T04:44:36.029Z,4
2017-11-07T04:45:06.780Z,4
2017-11-07T04:46:32.476Z,4
2017-11-07T04:48:30.776Z,4
2017-11-07T04:49:29.156Z,3.9
2017-11-07T04:50:28.806Z,4
2017-11-07T04:51:28.084Z,3.9
2017-11-07T04:52:26.735Z,3.9
2017-11-07T04:53:26.024Z,3.9
2017-11-07T04:54:24.794Z,3.9
2017-11-07T04:55:23.936Z,3.9
2017-11-07T04:56:22.965Z,3.9
2017-11-07T04:58:20.733Z,3.9
2017-11-07T04:59:19.614Z,3.9
2017-11-07T05:00:19.175Z,3.9
2017-11-07T05:01:18.085Z,3.9
2017-11-07T05:04:14.724Z,3.9
2017-11-07T05:05:14.009Z,3.9
2017-11-07T05:06:13.165Z,3.9
2017-11-07T05:07:12.606Z,3.9
2017-11-07T05:08:11.115Z,3.9
2017-11-07T05:09:10.254Z,3.9
2017-11-07T05:10:09.404Z,3.9
2017-11-07T05:11:08.557Z,3.9
2017-11-07T05:12:07.075Z,3.9
2017-11-07T05:13:05.955Z,3.9
2017-11-07T05:14:06.004Z,3.9
2017-11-07T05:15:04.520Z,3.9
2017-11-07T05:16:03.539Z,3.8
2017-11-07T05:17:02.420Z,3.8
2017-11-07T05:18:01.453Z,3.8
2017-11-07T05:19:00.336Z,3.8
2017-11-07T05:19:59.623Z,3.8
2017-11-07T05:20:58.640Z,3.8
2017-11-07T05:21:57.660Z,3.8
2017-11-07T05:22:56.695Z,3.9
2017-11-07T05:23:27.178Z,3.9
2017-11-07T05:24:54.739Z,3.8
2017-11-07T05:25:53.903Z,3.8
2017-11-07T05:26:53.052Z,3.8
2017-11-07T05:27:52.196Z,3.8
2017-11-07T05:28:50.837Z,3.8
2017-11-07T05:29:49.590Z,3.8
2017-11-07T05:30:49.245Z,3.8
2017-11-07T05:31:48.041Z,3.8
2017-11-07T05:32:47.071Z,3.9
2017-11-07T05:33:46.232Z,3.8
2017-11-07T05:34:44.755Z,3.8
2017-11-07T05:35:43.914Z,3.8
2017-11-07T05:36:43.063Z,3.8
2017-11-07T05:37:42.082Z,3.9
2017-11-07T05:38:41.238Z,3.9
2017-11-07T05:39:40.137Z,3.9
2017-11-07T05:40:39.296Z,3.9
2017-11-07T05:42:37.325Z,3.9
2017-11-07T05:43:36.742Z,3.8
2017-11-07T05:44:35.125Z,3.9
2017-11-07T05:45:34.280Z,3.9
2017-11-07T05:46:33.422Z,3.9
2017-11-07T05:47:32.567Z,3.9
2017-11-07T05:48:31.914Z,3.9
2017-11-07T05:50:49.739Z,3.9
2017-11-07T05:50:51.524Z,3.9
2017-11-07T05:51:28.660Z,3.9
2017-11-07T05:52:27.804Z,3.9
2017-11-07T05:53:26.679Z,3.9
2017-11-07T05:54:25.684Z,3.9
2017-11-07T05:55:24.554Z,3.9
2017-11-07T05:56:23.842Z,3.9
2017-11-07T05:57:22.993Z,3.9
2017-11-07T05:58:21.768Z,3.9
2017-11-07T05:59:20.634Z,3.9
2017-11-07T06:00:20.011Z,3.9
2017-11-07T06:01:19.145Z,3.9
2017-11-07T06:02:17.794Z,3.9
2017-11-07T06:03:16.802Z,3.9
2017-11-07T06:04:16.071Z,3.9
2017-11-07T06:06:13.964Z,4
2017-11-07T06:07:13.231Z,4
2017-11-07T06:08:12.105Z,4
2017-11-07T06:08:42.823Z,4
2017-11-07T06:10:10.302Z,4
2017-11-07T06:11:09.438Z,4
2017-11-07T06:13:07.464Z,4
2017-11-07T06:14:06.740Z,4
2017-11-07T06:15:05.385Z,4
2017-11-07T06:16:04.528Z,4
2017-11-07T06:17:03.669Z,4
2017-11-07T06:18:02.705Z,4
2017-11-07T06:18:32.523Z,4
2017-11-07T06:19:02.836Z,4
2017-11-07T06:19:33.795Z,4
2017-11-07T06:20:59.739Z,4
2017-11-07T06:21:58.613Z,4
2017-11-07T06:22:57.622Z,4
2017-11-07T06:23:56.916Z,4
2017-11-07T06:24:55.680Z,4
2017-11-07T06:25:54.680Z,4
2017-11-07T06:26:53.959Z,4
2017-11-07T06:27:52.986Z,4
2017-11-07T06:29:51.277Z,4
2017-11-07T06:30:49.804Z,4
2017-11-07T06:31:48.948Z,4
2017-11-07T06:32:47.955Z,4
2017-11-07T06:33:46.955Z,4
2017-11-07T06:34:46.378Z,4
2017-11-07T06:35:45.018Z,4
2017-11-07T06:36:44.163Z,4
2017-11-07T06:37:43.302Z,4
2017-11-07T06:38:42.446Z,4
2017-11-07T06:39:40.946Z,4
2017-11-07T06:40:40.084Z,4
2017-11-07T06:41:39.219Z,4
2017-11-07T06:42:38.252Z,4
2017-11-07T06:43:37.401Z,4
2017-11-07T06:44:36.406Z,4
2017-11-07T06:45:35.544Z,4
2017-11-07T06:46:34.560Z,4.1
2017-11-07T06:47:33.830Z,4.1
2017-11-07T06:48:32.202Z,4.1
2017-11-07T06:49:02.896Z,4.1
2017-11-07T06:49:33.984Z,4.1
2017-11-07T06:53:59.299Z,4.1
2017-11-07T06:56:06.890Z,4.1
2017-11-07T06:56:08.577Z,4.1
2017-11-07T06:56:38.908Z,4.1
2017-11-07T06:57:23.835Z,4.2
2017-11-07T06:57:54.438Z,4.2
2017-11-07T06:58:24.901Z,4.2
2017-11-07T06:58:55.368Z,4.2
2017-11-07T06:59:25.968Z,4.2
2017-11-07T06:59:56.175Z,4.2
2017-11-07T07:00:26.876Z,4.2
2017-11-07T07:00:57.714Z,4.2
2017-11-07T07:02:18.874Z,4.2
2017-11-07T07:03:18.277Z,4.2
2017-11-07T07:04:17.055Z,4.2
2017-11-07T07:05:16.219Z,4.2
2017-11-07T07:06:15.501Z,4.2
2017-11-07T07:07:13.749Z,4.2
2017-11-07T07:08:13.274Z,4.2
2017-11-07T07:09:12.169Z,4.2
2017-11-07T07:09:42.869Z,4.2
2017-11-07T07:11:09.935Z,4.3
2017-11-07T07:12:09.463Z,4.3
2017-11-07T07:13:08.617Z,4.3
2017-11-07T07:14:07.391Z,4.3
2017-11-07T07:15:06.276Z,4.3
2017-11-07T07:16:05.662Z,4.3
2017-11-07T07:19:02.654Z,4.4
2017-11-07T07:20:01.808Z,4.4
2017-11-07T07:22:11.657Z,4.4
2017-11-07T07:22:13.292Z,4.4
2017-11-07T07:22:58.582Z,4.4
2017-11-07T07:23:57.859Z,4.4
2017-11-07T07:24:56.878Z,4.4
2017-11-07T07:25:55.888Z,4.5
2017-11-07T07:26:54.766Z,4.5
2017-11-07T07:27:53.905Z,4.5
2017-11-07T07:28:52.922Z,4.5
2017-11-07T07:29:52.073Z,4.5
2017-11-07T07:30:51.081Z,4.5
2017-11-07T07:31:49.963Z,4.6
2017-11-07T07:32:48.849Z,4.6
2017-11-07T07:33:48.504Z,4.6
2017-11-07T07:34:47.016Z,4.6
2017-11-07T07:35:46.298Z,4.7
2017-11-07T07:36:45.448Z,4.7
2017-11-07T07:37:44.856Z,4.7
2017-11-07T07:38:43.104Z,4.7
2017-11-07T07:39:42.753Z,4.7
2017-11-07T07:40:14.555Z,4.7
2017-11-07T07:40:43.507Z,4.7
2017-11-07T07:41:13.973Z,4.7
2017-11-07T07:41:44.293Z,4.8
2017-11-07T07:42:14.883Z,4.8
2017-11-07T07:43:38.559Z,4.8
2017-11-07T07:44:37.719Z,4.8
2017-11-07T07:45:36.737Z,4.7
2017-11-07T07:46:36.020Z,4.8
2017-11-07T07:47:34.940Z,4.8
2017-11-07T07:49:32.842Z,4.8
2017-11-07T07:50:03.183Z,4.8
2017-11-07T07:50:33.505Z,4.8
2017-11-07T07:51:03.571Z,4.8
2017-11-07T07:51:34.399Z,4.8
2017-11-07T07:53:29.142Z,4.9
2017-11-07T07:55:27.187Z,4.9
2017-11-07T07:56:26.330Z,4.9
2017-11-07T07:57:25.102Z,4.9
2017-11-07T07:58:24.116Z,4.9
2017-11-07T08:00:22.287Z,5
2017-11-07T08:01:21.440Z,5
2017-11-07T08:02:20.323Z,5
2017-11-07T08:03:19.341Z,5
2017-11-07T08:04:18.492Z,5
2017-11-07T08:05:17.932Z,5
2017-11-07T08:06:16.712Z,5
2017-11-07T08:07:15.726Z,5
2017-11-07T08:08:14.604Z,5.1
2017-11-07T08:09:13.750Z,5.1
2017-11-07T08:10:12.778Z,5.1
2017-11-07T08:11:11.660Z,5.1
2017-11-07T08:12:10.811Z,5.1
2017-11-07T08:14:09.221Z,5.2
2017-11-07T08:15:08.125Z,5.2
2017-11-07T08:16:07.280Z,5.2
2017-11-07T08:17:06.031Z,5.3
2017-11-07T08:18:05.442Z,5.3
2017-11-07T08:19:04.348Z,5.3
2017-11-07T08:20:03.371Z,5.3
2017-11-07T08:21:02.524Z,5.3
2017-11-07T08:22:00.902Z,5.3
2017-11-07T08:23:00.696Z,5.4
2017-11-07T08:23:59.206Z,5.4
2017-11-07T08:24:58.589Z,5.4
2017-11-07T08:25:57.872Z,5.4
2017-11-07T08:26:56.379Z,5.4
2017-11-07T08:27:56.039Z,5.4
2017-11-07T08:28:54.681Z,5.4
2017-11-07T08:29:53.819Z,5.4
2017-11-07T08:30:53.096Z,5.5
2017-11-07T08:31:52.244Z,5.5
2017-11-07T08:32:50.754Z,5.5
2017-11-07T08:33:49.899Z,5.5
2017-11-07T08:34:48.912Z,5.5
2017-11-07T08:35:47.790Z,5.5
2017-11-07T08:36:47.041Z,5.5
2017-11-07T08:37:46.201Z,5.5
2017-11-07T08:38:45.349Z,5.5
2017-11-07T08:39:44.625Z,5.6
2017-11-07T08:41:42.791Z,5.6
2017-11-07T08:42:41.315Z,5.6
2017-11-07T08:43:40.196Z,5.5
2017-11-07T08:44:39.584Z,5.6
2017-11-07T08:47:44.076Z,5.6
2017-11-07T08:48:35.541Z,5.6
2017-11-07T08:49:35.070Z,5.6
2017-11-07T08:50:34.212Z,5.6
2017-11-07T08:51:32.992Z,5.6
2017-11-07T08:52:32.279Z,5.6
2017-11-07T08:53:31.296Z,5.5
2017-11-07T08:54:30.181Z,5.6
2017-11-07T08:55:29.610Z,5.6
2017-11-07T08:56:28.259Z,5.6
2017-11-07T08:57:27.276Z,5.6
2017-11-07T08:58:26.837Z,5.7
2017-11-07T08:59:25.470Z,5.7
2017-11-07T09:00:24.617Z,5.7
2017-11-07T09:01:23.132Z,5.7
2017-11-07T09:02:23.056Z,5.7
2017-11-07T09:03:22.107Z,5.7
2017-11-07T09:04:20.881Z,5.7
2017-11-07T09:05:19.532Z,5.7
2017-11-07T09:06:18.687Z,5.7
2017-11-07T09:07:17.565Z,5.8
2017-11-07T09:08:16.852Z,5.8
2017-11-07T09:10:14.889Z,5.8
2017-11-07T09:11:14.036Z,5.8
2017-11-07T09:12:13.312Z,5.8
2017-11-07T09:13:11.830Z,5.8
2017-11-07T09:14:11.744Z,5.9
2017-11-07T09:16:09.400Z,5.9
2017-11-07T09:17:08.283Z,5.9
2017-11-07T09:18:07.297Z,5.9
2017-11-07T09:19:06.454Z,5.9
2017-11-07T09:20:05.339Z,5.9
2017-11-07T09:21:04.369Z,5.9
2017-11-07T09:22:04.150Z,6
2017-11-07T09:23:02.929Z,6
2017-11-07T09:24:02.220Z,6
2017-11-07T09:25:00.879Z,6.1
2017-11-07T09:25:31.496Z,6.1
2017-11-07T09:26:59.069Z,6.3
2017-11-07T09:27:58.092Z,6.3
2017-11-07T09:28:57.514Z,6.4
2017-11-07T09:29:56.030Z,6.4
2017-11-07T09:30:54.911Z,6.5
2017-11-07T09:31:54.568Z,6.5
2017-11-07T09:32:53.349Z,6.5
2017-11-07T09:33:52.628Z,6.5
2017-11-07T09:34:51.507Z,6.5
2017-11-07T09:35:50.513Z,6.5
2017-11-07T09:36:49.819Z,6.5
2017-11-07T09:37:48.845Z,6.5
2017-11-07T09:38:47.991Z,6.5
2017-11-07T09:39:47.006Z,6.4
2017-11-07T09:41:45.042Z,6.4
2017-11-07T09:42:44.189Z,6.4
2017-11-07T09:43:43.212Z,6.4
2017-11-07T09:44:42.095Z,6.4
2017-11-07T09:45:40.842Z,6.4
2017-11-07T09:46:40.488Z,6.4
2017-11-07T09:47:39.645Z,6.4
2017-11-07T09:48:38.292Z,6.4
2017-11-07T09:49:37.305Z,6.3
2017-11-07T09:50:36.963Z,6.3
2017-11-07T09:51:35.744Z,6.3
2017-11-07T09:52:35.033Z,6.4
2017-11-07T09:53:33.924Z,6.4
2017-11-07T09:54:32.805Z,6.4
2017-11-07T09:55:31.812Z,6.4
2017-11-07T09:56:30.833Z,6.4
2017-11-07T09:57:30.391Z,6.4
2017-11-07T09:58:29.185Z,6.4
2017-11-07T09:59:28.460Z,6.4
2017-11-07T10:00:26.968Z,6.5
2017-11-07T10:01:26.467Z,6.5
2017-11-07T10:04:15.510Z,6.5
2017-11-07T10:04:17.020Z,6.5
2017-11-07T10:05:22.577Z,6.5
2017-11-07T10:06:21.461Z,6.5
2017-11-07T10:07:20.755Z,6.5
2017-11-07T10:08:19.767Z,6.5
2017-11-07T10:09:19.060Z,6.5
2017-11-07T10:11:17.372Z,6.4
2017-11-07T10:12:16.387Z,6.4
2017-11-07T10:13:15.403Z,6.4
2017-11-07T10:14:14.549Z,6.4
2017-11-07T10:15:13.329Z,6.5
2017-11-07T10:16:12.491Z,6.4
2017-11-07T10:19:09.905Z,6.5
2017-11-07T10:20:09.053Z,6.5
2017-11-07T10:21:07.565Z,6.5
2017-11-07T10:22:06.857Z,6.5
2017-11-07T10:23:06.135Z,6.5
2017-11-07T10:24:04.916Z,6.5
2017-11-07T10:25:03.801Z,6.6
2017-11-07T10:26:03.077Z,6.6
2017-11-07T10:27:02.351Z,6.6
2017-11-07T10:28:01.762Z,6.6
2017-11-07T10:29:00.273Z,6.6
2017-11-07T10:29:59.289Z,6.6
2017-11-07T10:30:58.487Z,6.6
2017-11-07T10:31:57.504Z,6.6
2017-11-07T10:32:56.509Z,6.6
2017-11-07T10:33:55.654Z,6.6
2017-11-07T10:34:25.860Z,6.6
2017-11-07T10:34:56.316Z,6.6
2017-11-07T10:35:54.086Z,6.6
2017-11-07T10:36:52.968Z,6.6
2017-11-07T10:37:52.385Z,6.6
2017-11-07T10:38:51.025Z,6.7
2017-11-07T10:39:50.052Z,6.7
2017-11-07T10:40:49.075Z,6.7
2017-11-07T10:41:48.721Z,6.7
2017-11-07T10:42:47.246Z,6.7
2017-11-07T10:43:46.391Z,6.7
2017-11-07T10:44:16.980Z,6.7
2017-11-07T10:44:47.451Z,6.7
2017-11-07T10:45:17.907Z,6.7
2017-11-07T10:45:48.644Z,6.7
2017-11-07T10:46:19.264Z,6.7
2017-11-07T10:46:49.231Z,6.7
2017-11-07T10:47:42.587Z,6.7
2017-11-07T10:48:42.019Z,6.8
2017-11-07T10:49:41.306Z,6.8
2017-11-07T10:50:39.955Z,6.8
2017-11-07T10:51:38.975Z,6.8
2017-11-07T10:52:37.991Z,6.8
2017-11-07T10:53:37.371Z,6.8
2017-11-07T10:54:36.516Z,6.8
2017-11-07T10:55:35.554Z,6.8
2017-11-07T10:56:34.565Z,6.8
2017-11-07T10:57:33.575Z,6.8
2017-11-07T10:58:32.860Z,6.8
2017-11-07T10:59:31.895Z,6.8
2017-11-07T11:00:30.904Z,6.9
2017-11-07T11:01:30.077Z,6.9
2017-11-07T11:02:29.212Z,6.9
2017-11-07T11:03:27.850Z,6.9
2017-11-07T11:04:27.506Z,6.9
2017-11-07T11:05:26.144Z,7
2017-11-07T11:06:25.427Z,7
2017-11-07T11:07:24.711Z,7
2017-11-07T11:08:23.087Z,6.9
2017-11-07T11:09:22.470Z,7
2017-11-07T11:10:21.498Z,7
2017-11-07T11:11:20.380Z,7
2017-11-07T11:12:19.635Z,7.1
2017-11-07T11:13:18.944Z,7.1
2017-11-07T11:14:18.358Z,7.1
2017-11-07T11:15:16.874Z,7.1
2017-11-07T11:16:16.151Z,7.1
2017-11-07T11:17:15.300Z,7.1
2017-11-07T11:18:14.059Z,7.1
2017-11-07T11:19:13.202Z,7.1
2017-11-07T11:20:12.215Z,7.2
2017-11-07T11:21:11.487Z,7.2
2017-11-07T11:22:10.897Z,7.2
2017-11-07T11:23:09.811Z,7.2
2017-11-07T11:24:08.979Z,7.2
2017-11-07T11:25:07.496Z,7.2
2017-11-07T11:26:07.145Z,7.2
2017-11-07T11:26:37.477Z,7.2
2017-11-07T11:27:07.807Z,7.3
2017-11-07T11:27:38.275Z,7.3
2017-11-07T11:29:03.834Z,7.3
2017-11-07T11:32:01.117Z,7.3
2017-11-07T11:34:58.896Z,7.4
2017-11-07T11:35:57.816Z,7.4
2017-11-07T11:36:56.828Z,7.4
2017-11-07T11:37:27.285Z,7.4
2017-11-07T11:37:57.478Z,7.4
2017-11-07T11:38:54.847Z,7.5
2017-11-07T11:39:54.133Z,7.4
2017-11-07T11:40:53.020Z,7.5
2017-11-07T11:41:52.043Z,7.5
2017-11-07T11:42:51.190Z,7.5
2017-11-07T11:43:50.605Z,7.5
2017-11-07T11:44:49.620Z,7.5
2017-11-07T11:45:48.637Z,7.5
2017-11-07T11:46:47.780Z,7.5
2017-11-07T11:47:46.798Z,7.5
2017-11-07T11:48:45.952Z,7.6
2017-11-07T11:49:44.992Z,7.6
2017-11-07T11:50:43.885Z,7.6
2017-11-07T11:51:43.265Z,7.6
2017-11-07T11:52:42.411Z,7.6
2017-11-07T11:53:41.568Z,7.6
2017-11-07T11:54:40.846Z,7.6
2017-11-07T11:55:39.497Z,7.6
2017-11-07T11:56:38.646Z,7.6
2017-11-07T11:57:38.061Z,7.6
2017-11-07T11:58:36.447Z,7.6
2017-11-07T11:59:35.603Z,7.5
2017-11-07T12:00:35.399Z,7.5
2017-11-07T12:01:33.781Z,7.6
2017-11-07T12:02:33.431Z,7.6
2017-11-07T12:03:32.309Z,7.6
2017-11-07T12:04:31.586Z,7.6
2017-11-07T12:05:30.096Z,7.6
2017-11-07T12:06:29.608Z,7.6
2017-11-07T12:07:28.626Z,7.6
2017-11-07T12:08:27.775Z,7.6
2017-11-07T12:09:27.197Z,7.6
2017-11-07T12:10:25.839Z,7.6
2017-11-07T12:11:25.153Z,7.6
2017-11-07T12:12:24.183Z,7.6
2017-11-07T12:13:23.212Z,7.6
2017-11-07T12:14:22.496Z,7.6
2017-11-07T12:15:21.269Z,7.6
2017-11-07T12:16:20.422Z,7.6
2017-11-07T12:17:19.443Z,7.6
2017-11-07T12:18:18.593Z,7.6
2017-11-07T12:19:17.611Z,7.6
2017-11-07T12:20:16.765Z,7.6
2017-11-07T12:21:15.915Z,7.6
2017-11-07T12:22:15.061Z,7.6
2017-11-07T12:24:13.097Z,7.6
2017-11-07T12:25:12.247Z,7.6
2017-11-07T12:26:11.271Z,7.6
2017-11-07T12:27:10.424Z,7.6
2017-11-07T12:28:09.863Z,7.6
2017-11-07T12:29:08.259Z,7.6
2017-11-07T12:30:07.773Z,7.6
2017-11-07T12:31:06.979Z,7.6
2017-11-07T12:32:06.390Z,7.6
2017-11-07T12:33:04.911Z,7.7
2017-11-07T12:34:04.060Z,7.7
2017-11-07T12:35:03.350Z,7.7
2017-11-07T12:36:02.749Z,7.8
2017-11-07T12:37:01.124Z,7.8
2017-11-07T12:38:00.405Z,7.8
2017-11-07T12:38:59.424Z,7.8
2017-11-07T12:39:58.439Z,7.8
2017-11-07T12:40:58.092Z,7.8
2017-11-07T12:41:56.743Z,7.8
2017-11-07T12:42:55.756Z,7.8
2017-11-07T12:43:55.315Z,7.8
2017-11-07T12:44:54.101Z,7.8
2017-11-07T12:45:53.378Z,7.8
2017-11-07T12:46:52.659Z,7.8
2017-11-07T12:47:51.186Z,7.8
2017-11-07T12:48:50.340Z,7.8
2017-11-07T12:49:49.354Z,7.8
2017-11-07T12:50:48.875Z,7.8
2017-11-07T12:51:48.015Z,7.8
2017-11-07T12:52:46.795Z,7.9
2017-11-07T12:53:45.817Z,7.9
2017-11-07T12:54:44.696Z,7.9
2017-11-07T12:55:44.347Z,7.9
2017-11-07T12:56:43.362Z,7.9
2017-11-07T12:57:42.245Z,7.9
2017-11-07T12:58:41.261Z,7.9
2017-11-07T12:59:40.406Z,7.9
2017-11-07T13:00:39.287Z,7.9
2017-11-07T13:01:38.670Z,7.9
2017-11-07T13:02:09.368Z,7.9
2017-11-07T13:02:39.858Z,7.9
2017-11-07T13:03:10.595Z,7.9
2017-11-07T13:03:40.546Z,7.9
2017-11-07T13:04:11.036Z,7.9
2017-11-07T13:05:35.346Z,7.9
2017-11-07T13:06:34.358Z,7.8
2017-11-07T13:07:33.402Z,7.8
2017-11-07T13:08:32.829Z,7.8
2017-11-07T13:09:31.343Z,7.8
2017-11-07T13:10:30.488Z,7.8
2017-11-07T13:11:29.508Z,7.8
2017-11-07T13:11:59.969Z,7.8
2017-11-07T13:12:30.287Z,7.8
2017-11-07T13:13:00.874Z,7.8
2017-11-07T13:13:31.478Z,7.8
2017-11-07T13:14:01.772Z,7.8
2017-11-07T13:14:31.973Z,7.8
2017-11-07T13:15:02.323Z,7.8
2017-11-07T13:17:24.377Z,7.8
2017-11-07T13:18:23.532Z,7.9
2017-11-07T13:19:22.673Z,7.9
2017-11-07T13:20:21.962Z,7.9
2017-11-07T13:21:20.865Z,7.9
2017-11-07T13:22:20.017Z,7.8
2017-11-07T13:23:18.532Z,7.9
2017-11-07T13:24:18.185Z,7.9
2017-11-07T13:27:15.223Z,7.8
2017-11-07T13:28:14.102Z,7.8
2017-11-07T13:29:13.749Z,7.8
2017-11-07T13:30:12.761Z,7.8
2017-11-07T13:31:11.634Z,7.8
2017-11-07T13:32:10.798Z,7.8
2017-11-07T13:33:10.213Z,7.8
2017-11-07T13:34:09.381Z,7.8
2017-11-07T13:35:08.026Z,7.8
2017-11-07T13:36:07.303Z,7.8
2017-11-07T13:37:06.461Z,7.8
2017-11-07T13:38:05.473Z,7.8
2017-11-07T13:39:04.613Z,7.8
2017-11-07T13:40:03.624Z,7.8
2017-11-07T13:41:02.501Z,7.7
2017-11-07T13:42:01.381Z,7.8
2017-11-07T13:42:32.212Z,7.8
2017-11-07T13:43:02.675Z,7.7
2017-11-07T13:43:33.004Z,7.7
2017-11-07T13:44:03.601Z,7.7
2017-11-07T13:44:34.064Z,7.7
2017-11-07T13:45:04.539Z,7.7
2017-11-07T13:45:34.996Z,7.7
2017-11-07T13:46:57.289Z,7.7
2017-11-07T13:47:56.826Z,7.7
2017-11-07T13:48:55.343Z,7.7
2017-11-07T13:49:54.626Z,7.7
2017-11-07T13:50:53.767Z,7.7
2017-11-07T13:51:52.783Z,7.7
2017-11-07T13:52:52.058Z,7.7
2017-11-07T13:53:22.396Z,7.7
2017-11-07T13:53:52.878Z,7.6
2017-11-07T13:54:23.463Z,7.6
2017-11-07T13:54:53.419Z,7.7
2017-11-07T13:55:23.885Z,7.7
2017-11-07T13:55:53.941Z,7.7
2017-11-07T13:56:24.905Z,7.7
2017-11-07T13:57:47.072Z,7.6